SANT/TUC METAR and TAF weather

Enter ICAO airport designator
Station Type Date Time Source
SANT METAR 2020/07/11 04:00 UTC NOAA

SANT 110400Z 22008KT 5000 FU NSC 11/04 Q1017


Station Type Date Time Source
SANT Decoded METAR 2020/07/11 04:00 UTC NOAA

Tucuman Aerodrome, Argentina (SANT) 26-51S 065-06W 450M
Jul 11, 2020 - 12:00 AM EDT / 2020.07.11 0400 UTC
Wind: from the SW (220 degrees) at 9 MPH (8 KT):0
Visibility: 3 mile(s):0
Weather: smoke
Temperature: 51 F (11 C)
Dew Point: 39 F (4 C)
Relative Humidity: 61%
Pressure (altimeter): 30.03 in. Hg (1017 hPa)
ob: SANT 110400Z 22008KT 5000 FU NSC 11/04 Q1017
cycle: 4

Station Type Date Time Source
SANT TAF 2020/07/11 00:00 UTC NOAA

TAF SANT 102300Z 1100/1124 05005KT 5000 FU NSC TX20/1118Z TN05/1110Z
BECMG 1101/1104 23010KT 7000 FEW040 PROB30
TEMPO 1108/1111 VRB03KT 5000 BR SCT020
BECMG 1116/1119 27005KT 6000 NSC

Example: see airport list